createdAt,value
2019-05-25T00:00:30.031Z,97534.86
2019-05-25T00:03:00.344Z,97628.55
2019-05-25T00:05:30.772Z,97711.98
2019-05-25T00:08:02.409Z,97711.98
2019-05-25T00:10:32.805Z,97756.68
2019-05-25T00:13:03.172Z,97749.39
2019-05-25T00:15:33.481Z,97759.00
2019-05-25T00:18:04.150Z,97723.41
2019-05-25T00:20:34.417Z,97788.47
2019-05-25T00:23:04.747Z,97817.66
2019-05-25T00:25:35.124Z,97816.33
2019-05-25T00:28:05.440Z,97850.95
2019-05-25T00:30:35.784Z,97821.96
2019-05-25T00:33:06.499Z,97771.92
2019-05-25T00:35:38.171Z,97728.38
2019-05-25T00:38:08.464Z,97666.11
2019-05-25T00:40:40.348Z,97656.52
2019-05-25T00:43:10.636Z,97660.33
2019-05-25T00:45:40.888Z,97615.98
2019-05-25T00:48:11.624Z,97593.81
2019-05-25T00:50:41.944Z,97591.49
2019-05-25T00:53:12.751Z,97560.20
2019-05-25T00:55:45.228Z,97583.89
2019-05-25T00:58:15.715Z,97593.64
2019-05-25T01:00:46.428Z,97612.00
2019-05-25T01:03:17.808Z,97626.08
2019-05-25T01:05:50.705Z,97607.22
2019-05-25T01:08:21.036Z,97570.45
2019-05-25T01:10:51.348Z,97547.45
2019-05-25T01:13:21.764Z,97524.30
2019-05-25T01:15:52.068Z,97496.84
2019-05-25T01:18:22.507Z,97511.40
2019-05-25T01:20:52.923Z,97519.17
2019-05-25T01:23:25.637Z,97454.84
2019-05-25T01:25:55.957Z,97469.41
2019-05-25T01:28:30.188Z,97499.33
2019-05-25T01:31:00.616Z,97499.33
2019-05-25T01:33:32.159Z,97487.42
2019-05-25T01:36:02.531Z,97446.23
2019-05-25T01:38:32.852Z,97494.37
2019-05-25T01:41:03.227Z,97504.95
2019-05-25T01:43:33.953Z,97526.94
2019-05-25T01:46:04.236Z,97542.31
2019-05-25T01:48:34.548Z,97540.34
2019-05-25T01:51:04.883Z,97570.30
2019-05-25T01:53:35.466Z,97594.16
2019-05-25T01:56:06.451Z,97558.86
2019-05-25T01:58:37.205Z,97636.00
2019-05-25T02:01:08.292Z,97660.98
2019-05-25T02:03:39.299Z,97642.95
2019-05-25T02:06:09.902Z,97678.37
2019-05-25T02:08:40.760Z,97696.41
2019-05-25T02:11:12.929Z,97674.56
2019-05-25T02:13:45.270Z,97703.22
2019-05-25T02:16:19.364Z,97755.38
2019-05-25T02:18:50.159Z,97762.66
2019-05-25T02:21:21.180Z,97697.23
2019-05-25T02:23:51.522Z,97708.98
2019-05-25T02:26:21.816Z,97706.01
2019-05-25T02:28:52.296Z,97797.42
2019-05-25T02:31:25.375Z,97761.33
2019-05-25T02:33:58.548Z,97823.30
2019-05-25T02:36:28.951Z,97769.11
2019-05-25T02:39:00.123Z,97819.95
2019-05-25T02:41:31.917Z,97824.95
2019-05-25T02:44:02.270Z,97855.09
2019-05-25T02:46:36.953Z,97847.81
2019-05-25T02:49:08.853Z,97833.23
2019-05-25T02:51:40.168Z,97848.64
2019-05-25T02:54:10.515Z,97827.27
2019-05-25T02:56:44.460Z,97844.83
2019-05-25T02:59:14.787Z,97879.29
2019-05-25T03:01:45.127Z,97896.69
2019-05-25T03:04:21.392Z,97938.14
2019-05-25T03:06:55.362Z,97960.19
2019-05-25T03:09:28.926Z,97941.77
2019-05-25T03:12:02.308Z,97935.63
2019-05-25T03:14:34.369Z,97973.28
2019-05-25T03:17:05.612Z,97995.34
2019-05-25T03:19:36.584Z,98014.56
2019-05-25T03:22:07.221Z,98039.11
2019-05-25T03:24:37.542Z,98046.91
2019-05-25T03:27:08.622Z,98053.70
2019-05-25T03:29:41.375Z,98075.80
2019-05-25T03:32:12.660Z,98046.57
2019-05-25T03:34:43.955Z,98028.16
2019-05-25T03:37:15.882Z,98001.30
2019-05-25T03:39:47.421Z,97967.31
2019-05-25T03:42:18.080Z,97966.98
2019-05-25T03:44:48.487Z,98012.58
2019-05-25T03:47:18.800Z,98020.37
2019-05-25T03:49:51.287Z,98093.54
2019-05-25T03:52:21.919Z,98167.87
2019-05-25T03:54:53.396Z,98202.26
2019-05-25T03:57:25.362Z,98218.69
2019-05-25T04:00:00.032Z,98260.20
2019-05-25T04:02:30.336Z,98213.55
2019-05-25T04:05:02.497Z,98220.52
2019-05-25T04:07:39.078Z,98210.72
2019-05-25T04:10:09.801Z,98355.42
2019-05-25T04:12:42.438Z,98370.21
2019-05-25T04:15:13.191Z,98389.98
2019-05-25T04:17:46.075Z,98448.34
2019-05-25T04:20:18.705Z,98461.15
2019-05-25T04:22:51.658Z,98439.37
2019-05-25T04:25:22.087Z,98509.53
2019-05-25T04:27:56.219Z,98584.39
2019-05-25T04:30:27.703Z,98609.02
2019-05-25T04:32:58.421Z,98615.01
2019-05-25T04:35:28.752Z,98670.78
2019-05-25T04:37:59.416Z,98739.20
2019-05-25T04:40:29.745Z,98738.02
2019-05-25T04:43:02.633Z,98762.66
2019-05-25T04:45:33.134Z,98808.83
2019-05-25T04:48:07.188Z,98801.16
2019-05-25T04:50:41.406Z,98804.16
2019-05-25T04:53:12.293Z,98811.66
2019-05-25T04:55:45.717Z,98796.66
2019-05-25T04:58:17.229Z,98784.80
2019-05-25T05:00:48.026Z,98776.31
2019-05-25T05:03:19.400Z,98806.48
2019-05-25T05:05:50.547Z,98764.16
2019-05-25T05:08:23.410Z,98764.16
2019-05-25T05:10:53.812Z,98725.69
2019-05-25T05:13:25.787Z,98752.50
2019-05-25T05:15:56.453Z,98825.30
2019-05-25T05:18:27.140Z,98877.61
2019-05-25T05:20:57.965Z,98880.61
2019-05-25T05:23:28.284Z,98920.97
2019-05-25T05:25:58.611Z,98889.77
2019-05-25T05:28:28.973Z,98895.77
2019-05-25T05:30:59.310Z,98975.97
2019-05-25T05:33:33.331Z,98922.63
2019-05-25T05:36:05.992Z,98897.59
2019-05-25T05:38:37.453Z,98890.77
2019-05-25T05:41:09.310Z,98887.11
2019-05-25T05:43:41.647Z,98857.78
2019-05-25T05:46:13.750Z,98832.45
2019-05-25T05:48:47.835Z,98818.13
2019-05-25T05:51:20.973Z,98704.87
2019-05-25T05:53:56.132Z,98682.37
2019-05-25T05:56:27.338Z,98650.75
2019-05-25T05:58:57.630Z,98689.35
2019-05-25T06:01:28.209Z,98705.20
2019-05-25T06:03:58.919Z,98730.50
2019-05-25T06:06:33.424Z,98786.12
2019-05-25T06:09:07.056Z,98954.95
2019-05-25T06:11:37.707Z,99035.52
2019-05-25T06:14:08.048Z,99012.13
2019-05-25T06:16:43.154Z,98936.05
2019-05-25T06:19:13.895Z,98936.94
2019-05-25T06:21:44.207Z,99084.08
2019-05-25T06:24:17.831Z,99224.11
2019-05-25T06:26:48.138Z,99329.67
2019-05-25T06:29:18.431Z,99417.91
2019-05-25T06:31:49.075Z,99444.66
2019-05-25T06:34:27.197Z,99454.84
2019-05-25T06:36:57.518Z,99420.92
2019-05-25T06:39:27.992Z,99297.88
2019-05-25T06:41:58.619Z,99230.94
2019-05-25T06:44:29.237Z,99102.57
2019-05-25T06:46:59.821Z,99027.62
2019-05-25T06:49:30.149Z,98970.09
2019-05-25T06:52:00.467Z,98887.73
2019-05-25T06:54:31.128Z,98837.75
2019-05-25T06:57:01.526Z,98833.76
2019-05-25T06:59:32.950Z,98803.41
2019-05-25T07:02:03.973Z,98767.77
2019-05-25T07:04:34.355Z,98801.74
2019-05-25T07:07:04.666Z,98810.90
2019-05-25T07:09:34.998Z,98931.06
2019-05-25T07:12:08.191Z,98981.42
2019-05-25T07:14:38.753Z,99042.48
2019-05-25T07:17:10.703Z,99045.48
2019-05-25T07:19:45.881Z,98952.55
2019-05-25T07:22:17.078Z,98933.38
2019-05-25T07:24:48.193Z,98917.39
2019-05-25T07:27:18.576Z,98902.22
2019-05-25T07:29:48.993Z,98869.39
2019-05-25T07:32:19.791Z,98896.56
2019-05-25T07:34:50.212Z,98898.39
2019-05-25T07:37:20.644Z,98938.21
2019-05-25T07:39:52.947Z,99010.59
2019-05-25T07:42:23.463Z,99063.33
2019-05-25T07:44:54.032Z,99094.55
2019-05-25T07:47:24.383Z,99020.93
2019-05-25T07:49:54.658Z,99023.94
2019-05-25T07:52:25.999Z,98952.20
2019-05-25T07:55:01.131Z,98915.38
2019-05-25T07:57:32.029Z,98957.41
2019-05-25T08:00:02.438Z,98940.53
2019-05-25T08:02:33.238Z,98835.37
2019-05-25T08:05:03.939Z,98789.07
2019-05-25T08:07:34.244Z,98793.41
2019-05-25T08:10:06.517Z,98724.77
2019-05-25T08:12:36.886Z,98705.13
2019-05-25T08:15:08.135Z,98720.09
2019-05-25T08:17:40.064Z,98683.16
2019-05-25T08:20:12.433Z,98679.83
2019-05-25T08:22:44.146Z,98641.72
2019-05-25T08:25:15.340Z,98621.58
2019-05-25T08:27:45.701Z,98618.92
2019-05-25T08:30:16.146Z,98619.27
2019-05-25T08:32:55.298Z,98681.83
2019-05-25T08:35:25.694Z,98782.73
2019-05-25T08:37:57.972Z,98781.74
2019-05-25T08:40:28.232Z,98845.39
2019-05-25T08:42:58.711Z,99023.75
2019-05-25T08:45:29.895Z,99279.30
2019-05-25T08:48:00.523Z,99456.44
2019-05-25T08:50:38.141Z,99524.15
2019-05-25T08:53:08.804Z,99495.40
2019-05-25T08:55:39.458Z,99455.45
2019-05-25T08:58:11.157Z,99390.40
2019-05-25T09:00:41.421Z,99324.54
2019-05-25T09:03:12.586Z,99170.92
2019-05-25T09:05:45.361Z,99057.28
2019-05-25T09:08:15.671Z,99002.73
2019-05-25T09:10:49.716Z,99050.41
2019-05-25T09:13:20.294Z,99066.80
2019-05-25T09:15:50.700Z,99021.40
2019-05-25T09:18:26.308Z,99028.89
2019-05-25T09:20:56.742Z,98980.72
2019-05-25T09:23:28.824Z,98940.02
2019-05-25T09:25:59.135Z,98975.05
2019-05-25T09:28:29.845Z,98990.06
2019-05-25T09:31:01.009Z,99160.57
2019-05-25T09:33:31.543Z,99381.03
2019-05-25T09:36:02.027Z,99516.45
2019-05-25T09:38:32.322Z,99783.77
2019-05-25T09:41:04.081Z,99961.21
2019-05-25T09:43:34.513Z,100051.78
2019-05-25T09:46:04.934Z,100080.96
2019-05-25T09:48:38.195Z,100184.02
2019-05-25T09:51:15.269Z,100325.39
2019-05-25T09:53:40.750Z,100253.83
2019-05-25T09:56:13.476Z,100157.43
2019-05-25T09:58:43.774Z,100064.16
2019-05-25T10:01:16.143Z,100137.95
2019-05-25T10:03:46.438Z,100129.08
2019-05-25T10:06:19.917Z,99975.27
2019-05-25T10:08:51.381Z,99857.77
2019-05-25T10:11:22.143Z,99795.94
2019-05-25T10:13:52.446Z,100169.21
2019-05-25T10:16:23.143Z,101059.45
2019-05-25T10:18:53.453Z,102460.08
2019-05-25T10:21:25.189Z,103583.64
2019-05-25T10:23:55.791Z,103346.17
2019-05-25T10:26:27.542Z,102634.75
2019-05-25T10:28:57.849Z,101871.00
2019-05-25T10:31:28.730Z,101403.79
2019-05-25T10:33:59.173Z,101059.27
2019-05-25T10:36:31.563Z,100925.16
2019-05-25T10:39:01.861Z,100811.59
2019-05-25T10:41:32.839Z,100667.59
2019-05-25T10:44:05.253Z,100470.14
2019-05-25T10:46:35.865Z,100254.77
2019-05-25T10:49:06.224Z,100053.32
2019-05-25T10:51:36.700Z,99991.80
2019-05-25T10:54:06.994Z,99902.45
2019-05-25T10:56:38.789Z,99823.34
2019-05-25T10:59:14.698Z,99744.84
2019-05-25T11:01:42.068Z,99788.22
2019-05-25T11:04:15.236Z,99940.67
2019-05-25T11:06:45.509Z,100089.28
2019-05-25T11:09:16.363Z,100213.52
2019-05-25T11:11:46.748Z,100313.43
2019-05-25T11:14:17.304Z,100197.05
2019-05-25T11:16:52.249Z,100111.23
2019-05-25T11:19:24.352Z,100040.09
2019-05-25T11:21:54.964Z,100131.55
2019-05-25T11:24:25.744Z,100242.02
2019-05-25T11:26:59.577Z,100615.82
2019-05-25T11:29:28.636Z,101108.45
2019-05-25T11:32:05.018Z,100947.73
2019-05-25T11:34:36.802Z,101221.34
2019-05-25T11:37:07.125Z,101504.22
2019-05-25T11:39:39.790Z,101156.98
2019-05-25T11:42:12.309Z,100914.14
2019-05-25T11:44:42.709Z,100745.42
2019-05-25T11:47:13.088Z,100786.16
2019-05-25T11:49:44.483Z,101912.30
2019-05-25T11:52:14.875Z,102628.37
2019-05-25T11:54:45.213Z,102710.28
2019-05-25T11:57:15.931Z,103283.34
2019-05-25T11:59:46.309Z,103253.66
2019-05-25T12:02:19.643Z,103305.64
2019-05-25T12:04:50.182Z,102917.69
2019-05-25T12:07:22.081Z,102541.92
2019-05-25T12:09:52.474Z,102034.63
2019-05-25T12:12:24.812Z,101794.92
2019-05-25T12:14:56.457Z,101652.30
2019-05-25T12:17:28.408Z,101873.56
2019-05-25T12:20:01.079Z,101922.84
2019-05-25T12:22:32.670Z,101525.11
2019-05-25T12:25:08.539Z,101402.45
2019-05-25T12:27:39.061Z,101203.56
2019-05-25T12:30:13.285Z,101000.80
2019-05-25T12:32:43.947Z,100890.77
2019-05-25T12:35:14.373Z,100860.11
2019-05-25T12:37:44.739Z,101029.29
2019-05-25T12:40:16.291Z,101058.17
2019-05-25T12:42:51.953Z,101140.66
2019-05-25T12:45:23.951Z,100968.44
2019-05-25T12:47:55.250Z,100823.25
2019-05-25T12:50:26.518Z,100822.41
2019-05-25T12:52:56.854Z,100928.37
2019-05-25T12:55:27.445Z,101246.53
2019-05-25T12:57:57.836Z,101561.87
2019-05-25T13:00:29.314Z,101690.16
2019-05-25T13:02:59.639Z,101828.55
2019-05-25T13:05:34.709Z,102096.21
2019-05-25T13:08:09.503Z,101907.67
2019-05-25T13:10:39.871Z,101705.06
2019-05-25T13:13:12.361Z,101318.76
2019-05-25T13:15:43.135Z,101023.48
2019-05-25T13:18:15.044Z,101286.39
2019-05-25T13:20:47.928Z,101485.04
2019-05-25T13:23:18.306Z,102202.78
2019-05-25T13:25:51.571Z,102452.84
2019-05-25T13:28:25.571Z,102127.06
2019-05-25T13:31:10.488Z,102290.28
2019-05-25T13:33:27.968Z,102300.45
2019-05-25T13:35:58.262Z,102816.12
2019-05-25T13:38:28.665Z,102472.34
2019-05-25T13:41:00.587Z,102119.97
2019-05-25T13:43:33.902Z,101805.80
2019-05-25T13:46:06.135Z,101718.49
2019-05-25T13:48:37.607Z,101815.69
2019-05-25T13:51:13.112Z,102747.56
2019-05-25T13:53:43.450Z,103712.94
2019-05-25T13:56:14.079Z,104158.29
2019-05-25T13:58:44.637Z,104087.75
2019-05-25T14:01:28.123Z,104460.42
2019-05-25T14:03:47.084Z,104077.48
2019-05-25T14:06:17.382Z,103826.80
2019-05-25T14:08:47.729Z,103783.47
2019-05-25T14:11:18.646Z,103485.45
2019-05-25T14:13:49.218Z,102881.55
2019-05-25T14:16:21.237Z,102257.69
2019-05-25T14:18:51.616Z,101955.75
2019-05-25T14:21:21.955Z,101774.34
2019-05-25T14:23:52.383Z,101639.52
2019-05-25T14:26:22.720Z,101366.16
2019-05-25T14:28:53.183Z,101180.81
2019-05-25T14:31:23.656Z,101139.97
2019-05-25T14:33:55.313Z,101019.84
2019-05-25T14:36:27.803Z,100990.23
2019-05-25T14:38:58.143Z,100867.54
2019-05-25T14:41:30.885Z,101076.58
2019-05-25T14:44:07.996Z,101032.88
2019-05-25T14:46:43.492Z,101027.51
2019-05-25T14:49:18.072Z,101350.11
2019-05-25T14:51:51.279Z,102140.28
2019-05-25T14:54:22.014Z,102744.73
2019-05-25T14:56:54.852Z,102784.33
2019-05-25T14:59:29.802Z,103184.50
2019-05-25T15:02:02.895Z,104011.16
2019-05-25T15:04:32.394Z,104099.88
2019-05-25T15:07:05.085Z,104398.08
2019-05-25T15:09:37.580Z,104593.37
2019-05-25T15:12:10.366Z,104358.31
2019-05-25T15:14:44.072Z,104304.77
2019-05-25T15:17:14.369Z,104071.00
2019-05-25T15:19:44.744Z,104095.42
2019-05-25T15:22:15.440Z,103597.95
2019-05-25T15:24:45.756Z,103097.92
2019-05-25T15:27:19.319Z,102708.59
2019-05-25T15:29:53.495Z,102378.59
2019-05-25T15:32:26.018Z,102541.08
2019-05-25T15:34:58.480Z,102623.23
2019-05-25T15:37:28.857Z,103075.28
2019-05-25T15:40:04.868Z,103101.50
2019-05-25T15:42:36.343Z,102799.81
2019-05-25T15:45:14.532Z,102790.11
2019-05-25T15:47:44.919Z,102710.34
2019-05-25T15:50:16.192Z,102388.78
2019-05-25T15:52:46.517Z,102359.59
2019-05-25T15:55:17.596Z,102313.95
2019-05-25T15:57:51.519Z,102397.85
2019-05-25T16:00:29.825Z,102641.89
2019-05-25T16:03:01.498Z,102687.86
2019-05-25T16:05:39.324Z,102725.94
2019-05-25T16:08:10.564Z,102521.55
2019-05-25T16:10:44.075Z,102388.53
2019-05-25T16:13:14.857Z,102321.17
2019-05-25T16:15:45.190Z,102352.46
2019-05-25T16:18:16.553Z,102393.55
2019-05-25T16:20:53.982Z,102172.81
2019-05-25T16:23:24.282Z,101931.08
2019-05-25T16:25:54.904Z,101957.05
2019-05-25T16:28:29.413Z,101964.88
2019-05-25T16:31:01.200Z,101858.25
2019-05-25T16:33:31.519Z,101816.92
2019-05-25T16:36:02.240Z,101863.05
2019-05-25T16:38:34.758Z,101886.64
2019-05-25T16:41:05.207Z,101870.37
2019-05-25T16:43:36.938Z,101746.34
2019-05-25T16:46:08.320Z,101642.94
2019-05-25T16:48:38.932Z,101538.59
2019-05-25T16:51:13.337Z,101478.78
2019-05-25T16:53:45.596Z,101412.32
2019-05-25T16:56:17.088Z,101349.84
2019-05-25T16:58:49.780Z,101243.75
2019-05-25T17:01:20.130Z,101110.41
2019-05-25T17:03:51.571Z,100959.96
2019-05-25T17:06:21.865Z,100817.93
2019-05-25T17:08:56.019Z,100739.25
2019-05-25T17:11:26.969Z,100605.28
2019-05-25T17:13:57.571Z,100521.79
2019-05-25T17:16:30.937Z,100519.61
2019-05-25T17:19:01.870Z,100522.63
2019-05-25T17:21:35.637Z,100482.80
2019-05-25T17:24:08.821Z,100432.55
2019-05-25T17:26:40.417Z,100359.94
2019-05-25T17:29:13.341Z,100362.47
2019-05-25T17:31:47.532Z,100260.67
2019-05-25T17:34:18.670Z,100284.83
2019-05-25T17:36:48.983Z,100344.86
2019-05-25T17:39:22.313Z,100283.84
2019-05-25T17:41:54.282Z,100308.73
2019-05-25T17:44:25.647Z,100307.73
2019-05-25T17:47:02.262Z,100265.39
2019-05-25T17:49:32.823Z,100209.48
2019-05-25T17:52:04.068Z,100181.12
2019-05-25T17:54:34.382Z,100130.08
2019-05-25T17:57:07.978Z,100072.68
2019-05-25T17:59:39.649Z,100089.48
2019-05-25T18:02:10.142Z,100045.03
2019-05-25T18:04:42.397Z,100097.21
2019-05-25T18:07:15.276Z,100082.80
2019-05-25T18:09:47.967Z,100060.98
2019-05-25T18:12:18.282Z,100001.52
2019-05-25T18:14:50.333Z,100053.95
2019-05-25T18:17:21.976Z,99996.52
2019-05-25T18:19:52.576Z,100020.98
2019-05-25T18:22:22.896Z,100030.78
2019-05-25T18:24:53.183Z,100054.80
2019-05-25T18:27:23.865Z,100012.61
2019-05-25T18:29:54.175Z,100018.55
2019-05-25T18:32:24.819Z,99985.97
2019-05-25T18:34:55.154Z,99993.84
2019-05-25T18:37:25.858Z,100035.17
2019-05-25T18:40:00.408Z,99986.80
2019-05-25T18:42:30.898Z,99919.41
2019-05-25T18:45:04.998Z,99846.00
2019-05-25T18:47:38.673Z,99834.42
2019-05-25T18:50:09.327Z,99786.34
2019-05-25T18:52:39.639Z,99796.42
2019-05-25T18:55:10.838Z,99771.59
2019-05-25T18:57:42.265Z,99723.86
2019-05-25T19:00:12.746Z,99752.84
2019-05-25T19:02:44.377Z,99741.47
2019-05-25T19:05:19.148Z,99715.34
2019-05-25T19:07:51.737Z,99647.18
2019-05-25T19:10:24.621Z,99631.95
2019-05-25T19:12:56.376Z,99674.50
2019-05-25T19:15:31.179Z,99656.57
2019-05-25T19:18:01.580Z,99641.00
2019-05-25T19:20:34.321Z,99563.69
2019-05-25T19:23:06.111Z,99601.16
2019-05-25T19:25:36.619Z,99627.59
2019-05-25T19:28:07.313Z,99599.17
2019-05-25T19:30:37.685Z,99558.01
2019-05-25T19:33:09.083Z,99585.44
2019-05-25T19:35:41.531Z,99540.09
2019-05-25T19:38:14.897Z,99561.02
2019-05-25T19:40:47.241Z,99526.55
2019-05-25T19:43:22.798Z,99555.34
2019-05-25T19:45:57.227Z,99570.06
2019-05-25T19:48:27.881Z,99607.38
2019-05-25T19:50:58.201Z,99524.88
2019-05-25T19:53:29.193Z,99536.58
2019-05-25T19:55:59.490Z,99523.53
2019-05-25T19:58:32.305Z,99500.95
2019-05-25T20:01:03.112Z,99422.81
2019-05-25T20:03:33.460Z,99430.55
2019-05-25T20:06:05.191Z,99396.40
2019-05-25T20:08:35.982Z,99368.84
2019-05-25T20:11:06.665Z,99361.64
2019-05-25T20:13:38.711Z,99350.63
2019-05-25T20:16:09.394Z,99344.27
2019-05-25T20:18:41.319Z,99365.48
2019-05-25T20:21:13.061Z,99365.98
2019-05-25T20:23:44.253Z,99321.22
2019-05-25T20:26:15.586Z,99335.58
2019-05-25T20:28:50.546Z,99357.64
2019-05-25T20:31:20.541Z,99294.14
2019-05-25T20:33:51.012Z,99281.95
2019-05-25T20:36:21.357Z,99283.28
2019-05-25T20:38:53.287Z,99285.30
2019-05-25T20:41:23.899Z,99259.06
2019-05-25T20:43:54.580Z,99257.08
2019-05-25T20:46:25.039Z,99246.03
2019-05-25T20:48:55.390Z,99243.37
2019-05-25T20:51:28.250Z,99195.28
2019-05-25T20:53:58.821Z,99194.29
2019-05-25T20:56:29.163Z,99215.16
2019-05-25T20:59:00.019Z,99190.60
2019-05-25T21:01:32.341Z,99132.83
2019-05-25T21:04:07.557Z,99095.45
2019-05-25T21:06:40.404Z,99085.45
2019-05-25T21:09:16.403Z,99096.78
2019-05-25T21:11:43.583Z,99060.39
2019-05-25T21:14:14.415Z,98947.02
2019-05-25T21:16:44.735Z,98867.91
2019-05-25T21:19:15.108Z,98711.63
2019-05-25T21:21:47.302Z,98564.81
2019-05-25T21:24:22.431Z,98530.56
2019-05-25T21:26:52.747Z,98526.39
2019-05-25T21:29:23.065Z,98481.97
2019-05-25T21:31:55.231Z,98439.23
2019-05-25T21:34:28.284Z,98450.38
2019-05-25T21:36:58.810Z,98466.00
2019-05-25T21:39:29.400Z,98486.63
2019-05-25T21:42:04.728Z,98477.14
2019-05-25T21:44:34.999Z,98452.20
2019-05-25T21:47:25.810Z,98468.00
2019-05-25T21:49:56.418Z,98391.70
2019-05-25T21:52:26.737Z,98440.91
2019-05-25T21:54:58.523Z,98414.48
2019-05-25T21:57:28.822Z,98411.48
2019-05-25T21:59:59.274Z,98449.05
2019-05-25T22:02:32.233Z,98410.32
2019-05-25T22:05:04.923Z,98421.95
2019-05-25T22:07:35.468Z,98402.84
2019-05-25T22:10:08.929Z,98380.91
2019-05-25T22:12:40.384Z,98366.25
2019-05-25T22:15:12.875Z,98389.22
2019-05-25T22:17:43.202Z,98368.91
2019-05-25T22:20:15.046Z,98372.27
2019-05-25T22:22:45.423Z,98415.80
2019-05-25T22:25:18.189Z,98359.77
2019-05-25T22:27:49.901Z,98402.52
2019-05-25T22:30:22.095Z,98414.98
2019-05-25T22:32:52.487Z,98423.95
2019-05-25T22:35:25.630Z,98423.28
2019-05-25T22:37:58.358Z,98380.57
2019-05-25T22:40:33.829Z,98404.67
2019-05-25T22:43:05.489Z,98377.58
2019-05-25T22:45:35.787Z,98334.19
2019-05-25T22:48:06.138Z,98362.77
2019-05-25T22:50:36.386Z,98328.70
2019-05-25T22:53:07.071Z,98381.73
2019-05-25T22:55:37.948Z,98383.56
2019-05-25T22:58:08.270Z,98359.77
2019-05-25T23:00:38.566Z,98376.59
2019-05-25T23:03:13.729Z,98338.17
2019-05-25T23:05:44.213Z,98307.94
2019-05-25T23:08:14.806Z,98334.02
2019-05-25T23:10:45.391Z,98367.25
2019-05-25T23:13:16.035Z,98365.92
2019-05-25T23:15:48.445Z,98348.14
2019-05-25T23:18:18.721Z,98292.80
2019-05-25T23:20:48.912Z,98278.84
2019-05-25T23:23:22.009Z,98317.73
2019-05-25T23:25:54.515Z,98284.48
2019-05-25T23:28:24.851Z,98310.43
2019-05-25T23:30:55.198Z,98351.62
2019-05-25T23:33:25.954Z,98403.50
2019-05-25T23:35:56.217Z,98413.81
2019-05-25T23:38:26.606Z,98367.41
2019-05-25T23:40:57.996Z,98373.39
2019-05-25T23:43:29.729Z,98348.64
2019-05-25T23:46:01.231Z,98374.92
2019-05-25T23:48:31.514Z,98342.66
2019-05-25T23:51:01.878Z,98338.50
2019-05-25T23:53:33.744Z,98382.03
2019-05-25T23:56:04.034Z,98376.38
2019-05-25T23:58:34.673Z,98388.38
